Wrights Corner, Illinois
Current Conditions -  °F | °C
As of 8:55 AM on Sunday 28 Dec 2014 (Local Time) from K1H2 Reporting Station
Overcast Overcast  
Wind Chill: 24°   Ceiling: 2000
Heat Index: 31°   Visibility: 10mi
Dew Point: 22°   Wind: 8mph
Humidity: 70%   Direction: 340°NNW
Pressure: 30.25"   Gusts: NA
Location:  39.1767°N, 88.8216°W
Report Text: K1H2 281455Z AUTO 34007KT 10SM OVC020 00/M05 A3025 RMK AO2 T10051053
Loading
Personal Weather Stations






























Interactive Weather Map New forecast layout! Learn more

10-Day Weather Forecast

Advertisements
Track Severe Weather on mobile